createdAt,value
2023-02-12T00:03:39.563Z,2.90
2023-02-12T00:08:41.532Z,3.78
2023-02-12T00:13:43.682Z,5.72
2023-02-12T00:18:46.776Z,4.28
2023-02-12T00:23:49.081Z,6.45
2023-02-12T00:28:51.659Z,9.95
2023-02-12T00:33:53.678Z,5.10
2023-02-12T00:38:56.988Z,4.35
2023-02-12T00:43:59.004Z,5.30
2023-02-12T00:49:00.831Z,4.55
2023-02-12T00:54:02.609Z,3.63
2023-02-12T00:59:04.614Z,4.57
2023-02-12T01:04:06.541Z,4.25
2023-02-12T01:09:08.444Z,3.45
2023-02-12T01:14:10.306Z,3.97
2023-02-12T01:19:13.325Z,4.60
2023-02-12T01:24:15.174Z,4.63
2023-02-12T01:29:17.128Z,4.30
2023-02-12T01:34:20.116Z,3.95
2023-02-12T01:39:22.504Z,3.58
2023-02-12T01:44:29.653Z,4.75
2023-02-12T01:49:38.228Z,3.42
2023-02-12T01:54:42.027Z,3.40
2023-02-12T01:59:46.131Z,4.57
2023-02-12T02:04:53.550Z,3.55
2023-02-12T02:09:56.746Z,3.85
2023-02-12T02:15:01.319Z,3.97
2023-02-12T02:20:47.194Z,4.05
2023-02-12T02:26:04.245Z,3.38
2023-02-12T02:31:21.537Z,4.90
2023-02-12T02:36:54.458Z,4.78
2023-02-12T02:42:11.619Z,4.28
2023-02-12T02:47:15.381Z,3.95
2023-02-12T02:52:23.103Z,4.15
2023-02-12T02:57:34.446Z,3.42
2023-02-12T03:02:40.764Z,4.82
2023-02-12T03:07:48.080Z,3.38
2023-02-12T03:13:02.580Z,3.60
2023-02-12T03:18:11.578Z,3.10
2023-02-12T03:23:19.055Z,3.65
2023-02-12T03:28:27.372Z,3.67
2023-02-12T03:33:47.805Z,3.20
2023-02-12T03:38:54.540Z,3.00
2023-02-12T03:44:06.154Z,4.57
2023-02-12T03:49:18.303Z,3.80
2023-02-12T03:54:22.489Z,4.13
2023-02-12T03:59:25.921Z,4.22
2023-02-12T04:04:28.568Z,3.60
2023-02-12T04:09:32.368Z,3.22
2023-02-12T04:14:54.231Z,3.80
2023-02-12T04:20:06.012Z,3.20
2023-02-12T04:25:26.493Z,3.10
2023-02-12T04:30:35.828Z,2.92
2023-02-12T04:35:59.910Z,4.22
2023-02-12T04:41:04.952Z,2.88
2023-02-12T04:46:08.646Z,4.88
2023-02-12T04:51:11.150Z,3.92
2023-02-12T04:56:13.819Z,6.80
2023-02-12T05:01:15.835Z,4.57
2023-02-12T05:06:17.811Z,4.05
2023-02-12T05:11:19.806Z,9.85
2023-02-12T05:16:22.511Z,3.72
2023-02-12T05:21:24.567Z,4.40
2023-02-12T05:26:26.402Z,2.92
2023-02-12T05:31:28.312Z,5.50
2023-02-12T05:36:30.321Z,4.53
2023-02-12T05:41:35.362Z,4.50
2023-02-12T05:46:37.597Z,4.32
2023-02-12T05:51:39.733Z,3.97
2023-02-12T05:56:48.412Z,4.28
2023-02-12T06:01:52.231Z,3.67
2023-02-12T06:06:56.260Z,4.65
2023-02-12T06:11:58.240Z,2.95
2023-02-12T06:17:00.177Z,3.83
2023-02-12T06:22:01.975Z,4.30
2023-02-12T06:27:04.030Z,3.50
2023-02-12T06:32:08.738Z,3.88
2023-02-12T06:37:12.006Z,3.75
2023-02-12T06:42:13.905Z,3.17
2023-02-12T06:47:15.736Z,4.13
2023-02-12T06:52:17.827Z,5.20
2023-02-12T06:57:19.828Z,4.95
2023-02-12T07:02:22.089Z,4.70
2023-02-12T07:07:23.926Z,3.33
2023-02-12T07:12:25.943Z,4.53
2023-02-12T07:17:30.373Z,3.45
2023-02-12T07:22:32.306Z,6.15
2023-02-12T07:27:37.072Z,4.30
2023-02-12T07:32:39.169Z,4.32
2023-02-12T07:37:41.237Z,4.70
2023-02-12T07:42:43.045Z,3.45
2023-02-12T07:47:45.174Z,4.10
2023-02-12T07:52:50.400Z,3.92
2023-02-12T07:57:52.441Z,4.57
2023-02-12T08:02:54.577Z,4.65
2023-02-12T08:07:56.515Z,5.00
2023-02-12T08:12:58.438Z,4.30
2023-02-12T08:18:01.957Z,3.83
2023-02-12T08:23:03.816Z,4.65
2023-02-12T08:28:06.422Z,4.45
2023-02-12T08:33:08.375Z,3.95
2023-02-12T08:38:10.492Z,5.95
2023-02-12T08:43:12.545Z,4.28
2023-02-12T08:48:14.546Z,4.75
2023-02-12T08:53:16.478Z,4.90
2023-02-12T08:58:18.742Z,3.70
2023-02-12T09:03:20.694Z,4.05
2023-02-12T09:08:22.940Z,45.83
2023-02-12T09:13:24.979Z,4.03
2023-02-12T09:18:27.014Z,5.07
2023-02-12T09:23:28.964Z,4.15
2023-02-12T09:28:31.348Z,9.10
2023-02-12T09:33:33.687Z,11.88
2023-02-12T09:38:35.827Z,13.25
2023-02-12T09:43:47.945Z,14.98
2023-02-12T09:49:11.736Z,16.38
2023-02-12T09:54:16.222Z,17.90
2023-02-12T09:59:35.933Z,23.20
2023-02-12T10:04:43.969Z,15.73
2023-02-12T10:10:10.777Z,24.85
2023-02-12T10:15:33.141Z,30.38
2023-02-12T10:20:58.352Z,18.13
2023-02-12T10:26:10.114Z,20.08
2023-02-12T10:31:32.441Z,24.75
2023-02-12T10:36:44.179Z,27.52
2023-02-12T10:42:10.969Z,17.80
2023-02-12T10:47:24.283Z,13.55
2023-02-12T10:52:53.566Z,14.00
2023-02-12T10:57:56.331Z,16.05
2023-02-12T11:03:19.556Z,13.18
2023-02-12T11:08:34.196Z,12.77
2023-02-12T11:13:36.515Z,13.45
2023-02-12T11:18:39.079Z,11.52
2023-02-12T11:23:44.221Z,10.73
2023-02-12T11:28:55.774Z,9.30
2023-02-12T11:34:13.183Z,10.32
2023-02-12T11:39:36.703Z,10.50
2023-02-12T11:44:41.870Z,9.50
2023-02-12T11:49:51.414Z,12.35
2023-02-12T11:54:56.939Z,10.02
2023-02-12T12:00:01.638Z,9.35
2023-02-12T12:05:21.428Z,9.32
2023-02-12T12:10:23.184Z,10.27
2023-02-12T12:15:48.522Z,7.95
2023-02-12T12:20:56.297Z,7.53
2023-02-12T12:26:07.134Z,8.50
2023-02-12T12:31:39.479Z,8.18
2023-02-12T12:37:00.408Z,7.43
2023-02-12T12:42:11.384Z,7.25
2023-02-12T12:47:40.022Z,9.68
2023-02-12T12:53:19.285Z,7.05
2023-02-12T12:58:48.847Z,6.80
2023-02-12T13:03:59.858Z,6.80
2023-02-12T13:09:19.761Z,8.18
2023-02-12T13:14:40.317Z,8.55
2023-02-12T13:19:55.962Z,6.07
2023-02-12T13:25:07.152Z,6.75
2023-02-12T13:30:15.757Z,7.50
2023-02-12T13:35:23.682Z,11.68
2023-02-12T13:40:28.498Z,6.18
2023-02-12T13:45:49.529Z,7.07
2023-02-12T13:51:37.790Z,5.63
2023-02-12T13:56:50.001Z,7.70
2023-02-12T14:01:51.977Z,7.63
2023-02-12T14:07:12.969Z,5.82
2023-02-12T14:12:30.653Z,5.63
2023-02-12T14:17:32.590Z,6.15
2023-02-12T14:22:34.382Z,5.93
2023-02-12T14:28:11.768Z,5.18
2023-02-12T14:33:24.324Z,6.15
2023-02-12T14:38:32.215Z,5.95
2023-02-12T14:43:57.287Z,5.55
2023-02-12T14:49:05.749Z,6.38
2023-02-12T14:54:19.301Z,6.95
2023-02-12T14:59:24.773Z,5.13
2023-02-12T15:04:35.499Z,5.10
2023-02-12T15:09:44.445Z,6.00
2023-02-12T15:14:51.640Z,6.47
2023-02-12T15:20:00.222Z,6.03
2023-02-12T15:25:26.645Z,5.70
2023-02-12T15:30:32.369Z,5.88
2023-02-12T15:35:40.032Z,5.35
2023-02-12T15:40:54.561Z,5.13
2023-02-12T15:45:56.747Z,6.32
2023-02-12T15:51:17.342Z,6.57
2023-02-12T15:56:23.363Z,6.95
2023-02-12T16:01:30.639Z,5.85
2023-02-12T16:06:34.927Z,5.95
2023-02-12T16:11:37.607Z,6.13
2023-02-12T16:16:51.550Z,6.15
2023-02-12T16:21:53.356Z,4.93
2023-02-12T16:26:56.230Z,5.70
2023-02-12T16:32:03.188Z,5.95
2023-02-12T16:37:45.426Z,6.00
2023-02-12T16:42:47.359Z,5.03
2023-02-12T16:47:50.732Z,4.75
2023-02-12T16:53:07.764Z,4.57
2023-02-12T16:58:09.694Z,4.88
2023-02-12T17:03:16.681Z,5.90
2023-02-12T17:08:21.900Z,4.68
2023-02-12T17:13:23.908Z,5.85
2023-02-12T17:18:26.003Z,3.83
2023-02-12T17:23:28.772Z,4.72
2023-02-12T17:28:32.242Z,4.82
2023-02-12T17:33:34.105Z,4.50
2023-02-12T17:38:36.157Z,5.13
2023-02-12T17:43:38.482Z,4.45
2023-02-12T17:48:40.916Z,4.05
2023-02-12T17:53:43.744Z,4.93
2023-02-12T17:58:46.760Z,3.60
2023-02-12T18:03:52.351Z,4.07
2023-02-12T18:08:57.394Z,4.30
2023-02-12T18:14:00.338Z,4.28
2023-02-12T18:19:04.990Z,3.38
2023-02-12T18:24:07.349Z,3.72
2023-02-12T18:29:09.244Z,4.05
2023-02-12T18:34:11.349Z,4.07
2023-02-12T18:39:13.241Z,4.20
2023-02-12T18:44:15.615Z,4.40
2023-02-12T18:49:17.577Z,4.43
2023-02-12T18:54:19.835Z,4.10
2023-02-12T18:59:21.898Z,4.47
2023-02-12T19:04:24.310Z,3.50
2023-02-12T19:09:27.174Z,4.03
2023-02-12T19:14:29.337Z,3.83
2023-02-12T19:19:31.345Z,3.58
2023-02-12T19:24:45.880Z,4.55
2023-02-12T19:29:48.390Z,5.38
2023-02-12T19:34:50.454Z,5.53
2023-02-12T19:39:53.274Z,4.03
2023-02-12T19:44:55.323Z,3.95
2023-02-12T19:49:57.411Z,3.67
2023-02-12T19:54:59.262Z,4.22
2023-02-12T20:00:01.131Z,3.42
2023-02-12T20:05:03.308Z,5.78
2023-02-12T20:10:05.705Z,7.20
2023-02-12T20:15:07.925Z,6.03
2023-02-12T20:20:10.499Z,5.38
2023-02-12T20:25:12.292Z,5.57
2023-02-12T20:30:14.911Z,5.68
2023-02-12T20:35:16.973Z,6.45
2023-02-12T20:40:18.820Z,4.97
2023-02-12T20:45:20.580Z,8.73
2023-02-12T20:50:22.601Z,5.93
2023-02-12T20:55:24.911Z,6.32
2023-02-12T21:00:26.832Z,7.88
2023-02-12T21:05:29.188Z,7.07
2023-02-12T21:10:32.862Z,6.38
2023-02-12T21:15:34.688Z,7.28
2023-02-12T21:20:36.657Z,8.27
2023-02-12T21:25:38.803Z,9.95
2023-02-12T21:30:40.901Z,5.25
2023-02-12T21:35:42.840Z,8.20
2023-02-12T21:40:44.806Z,6.95
2023-02-12T21:45:51.255Z,9.77
2023-02-12T21:50:53.232Z,5.15
2023-02-12T21:55:55.967Z,6.22
2023-02-12T22:01:07.280Z,10.95
2023-02-12T22:06:09.385Z,7.32
2023-02-12T22:11:13.454Z,5.32
2023-02-12T22:16:23.328Z,5.45
2023-02-12T22:21:28.325Z,5.40
2023-02-12T22:26:31.650Z,3.97
2023-02-12T22:31:36.111Z,5.82
2023-02-12T22:36:39.404Z,6.13
2023-02-12T22:41:44.671Z,6.28
2023-02-12T22:46:46.551Z,5.90
2023-02-12T22:51:48.512Z,7.57
2023-02-12T22:56:51.888Z,5.40
2023-02-12T23:01:53.806Z,8.70
2023-02-12T23:06:55.637Z,6.90
2023-02-12T23:11:57.594Z,4.70
2023-02-12T23:16:59.602Z,4.88
2023-02-12T23:22:01.953Z,3.40
2023-02-12T23:27:03.783Z,5.22
2023-02-12T23:32:05.887Z,4.93
2023-02-12T23:37:07.912Z,5.80
2023-02-12T23:42:10.155Z,3.92
2023-02-12T23:47:12.026Z,4.45
2023-02-12T23:52:13.927Z,5.47
2023-02-12T23:57:15.827Z,4.88
